Time;durP1;ratioP1;P1;durP2;ratioP2;P2;SDS_P1;SDS_P2;PMS_P1;PMS_P2;Temp;Humidity;BMP_temperature;BMP_pressure;BME280_temperature;BME280_humidity;BME280_pressure;Samples;Min_cycle;Max_cycle;Signal;HPM_P1;HPM_P2
2021/09/26 00:02:21;;;;;;;8.25;5.35;;;;;;;15.65;62.38;100298.69;4501554;31;33583;-81
2021/09/26 00:04:49;;;;;;;8.43;4.45;;;;;;;15.53;62.74;100308.22;4479244;31;33489;-81
2021/09/26 00:07:16;;;;;;;8.57;4.47;;;;;;;15.68;61.70;100299.38;4492675;31;34060;-80
2021/09/26 00:09:44;;;;;;;6.12;4.80;;;;;;;15.41;62.39;100304.41;4493222;31;33931;-82
2021/09/26 00:12:12;;;;;;;5.03;4.10;;;;;;;15.33;62.87;100309.28;4479818;31;33350;-81
2021/09/26 00:14:41;;;;;;;5.53;4.10;;;;;;;15.36;62.80;100306.47;4478882;31;33905;-81
2021/09/26 00:17:08;;;;;;;6.90;4.70;;;;;;;15.44;62.41;100298.94;4486247;31;35302;-81
2021/09/26 00:19:36;;;;;;;8.90;4.30;;;;;;;15.46;62.01;100305.00;4492257;31;34502;-81
2021/09/26 00:22:04;;;;;;;5.45;4.75;;;;;;;15.57;61.63;100305.28;4479906;31;33934;-83
2021/09/26 00:24:35;;;;;;;6.00;4.37;;;;;;;15.52;61.69;100299.34;4482946;31;33705;-82
2021/09/26 00:27:03;;;;;;;5.30;4.15;;;;;;;15.49;61.76;100307.50;4493931;31;34809;-82
2021/09/26 00:29:31;;;;;;;6.03;4.62;;;;;;;15.44;62.10;100306.91;4486789;31;33756;-82
2021/09/26 00:31:59;;;;;;;5.85;4.35;;;;;;;15.24;62.88;100307.12;4492397;31;33800;-82
2021/09/26 00:34:27;;;;;;;7.57;5.05;;;;;;;15.28;62.79;100306.03;4501064;31;34535;-81
2021/09/26 00:36:54;;;;;;;7.20;4.05;;;;;;;15.45;61.63;100305.97;4475772;31;33913;-82
2021/09/26 00:39:22;;;;;;;6.20;3.97;;;;;;;15.14;62.80;100305.94;4493121;31;36016;-81
2021/09/26 00:41:50;;;;;;;4.82;4.22;;;;;;;15.15;62.80;100310.31;4486724;31;33246;-81
2021/09/26 00:44:17;;;;;;;7.12;4.82;;;;;;;15.18;62.38;100318.97;4494397;31;33958;-81
2021/09/26 00:46:45;;;;;;;7.37;4.47;;;;;;;15.20;62.44;100322.44;4475765;31;33500;-81
2021/09/26 00:49:13;;;;;;;6.90;4.18;;;;;;;15.15;62.42;100316.50;4494608;31;34101;-82
2021/09/26 00:51:40;;;;;;;7.05;4.25;;;;;;;14.97;63.28;100315.69;4493990;31;33349;-83
2021/09/26 00:54:10;;;;;;;6.78;4.30;;;;;;;14.93;63.42;100314.13;4481326;31;33952;-83
2021/09/26 00:56:38;;;;;;;6.82;3.95;;;;;;;14.78;63.80;100314.94;4493244;31;34485;-82
2021/09/26 00:59:05;;;;;;;7.00;4.62;;;;;;;14.98;63.15;100312.09;4492855;31;34027;-82
2021/09/26 01:01:33;;;;;;;5.30;4.15;;;;;;;15.11;62.53;100318.47;4481621;31;34084;-82
2021/09/26 01:04:02;;;;;;;7.15;4.65;;;;;;;15.17;62.17;100316.41;4495205;31;34299;-82
2021/09/26 01:06:35;;;;;;;5.35;4.28;;;;;;;15.20;61.86;100322.44;4494060;31;34094;-82
2021/09/26 01:09:07;;;;;;;5.53;4.00;;;;;;;15.11;62.25;100323.78;4498346;31;34899;-82
2021/09/26 01:11:38;;;;;;;6.82;4.57;;;;;;;14.92;62.84;100320.41;4479701;31;32543;-82
2021/09/26 01:14:26;;;;;;;5.37;4.00;;;;;;;14.90;63.10;100319.59;4477243;31;34263;-82
2021/09/26 01:17:10;;;;;;;5.07;3.75;;;;;;;14.92;62.72;100331.03;4485443;31;34026;-82
2021/09/26 01:20:26;;;;;;;5.45;4.28;;;;;;;15.12;61.77;100329.97;4481691;31;33661;-82
2021/09/26 01:23:03;;;;;;;6.72;4.78;;;;;;;14.76;63.31;100330.97;4500682;31;34215;-82
2021/09/26 01:25:50;;;;;;;5.68;3.95;;;;;;;14.73;63.04;100332.94;4499622;31;33696;-81
2021/09/26 01:28:31;;;;;;;9.93;3.90;;;;;;;14.84;62.52;100335.87;4500782;31;34068;-82
2021/09/26 01:31:13;;;;;;;4.68;3.20;;;;;;;14.87;62.21;100330.41;4499898;31;33676;-83
2021/09/26 01:33:42;;;;;;;4.85;3.40;;;;;;;14.95;62.03;100335.31;4494041;31;32667;-82
2021/09/26 01:36:40;;;;;;;6.65;3.70;;;;;;;14.94;62.09;100330.94;4485073;31;33610;-82
2021/09/26 01:39:11;;;;;;;6.20;3.58;;;;;;;14.81;62.90;100330.72;4499369;31;33634;-83
2021/09/26 01:49:32;;;;;;;5.18;3.87;;;;;;;14.74;62.48;100324.03;4373068;32;34895;-82
2021/09/26 01:56:15;;;;;;;4.93;3.85;;;;;;;14.52;63.09;100326.94;4413618;32;33765;-82
2021/09/26 01:58:45;;;;;;;4.82;3.55;;;;;;;14.52;62.95;100330.44;4415966;32;32824;-80
2021/09/26 02:01:14;;;;;;;6.47;3.50;;;;;;;14.48;63.23;100330.69;4464065;31;33514;-80
2021/09/26 02:03:45;;;;;;;3.97;3.25;;;;;;;14.54;62.89;100327.72;4494646;31;34588;-80
2021/09/26 02:06:13;;;;;;;5.75;4.07;;;;;;;14.36;63.37;100332.16;4494718;31;34733;-80
2021/09/26 02:08:42;;;;;;;4.18;3.45;;;;;;;14.42;63.13;100323.00;4485149;31;34025;-80
2021/09/26 02:11:11;;;;;;;5.32;3.70;;;;;;;14.61;62.58;100323.78;4491993;31;33607;-81
2021/09/26 02:13:40;;;;;;;5.75;3.75;;;;;;;14.56;62.72;100324.03;4484230;31;34009;-80
2021/09/26 02:16:09;;;;;;;5.90;3.33;;;;;;;14.48;62.99;100317.38;4492384;31;33619;-80
2021/09/26 02:18:38;;;;;;;5.72;3.90;;;;;;;14.58;62.52;100323.97;4492441;31;33747;-81
2021/09/26 02:21:07;;;;;;;5.75;3.35;;;;;;;14.59;62.30;100323.88;4469531;31;33238;-81
2021/09/26 02:23:35;;;;;;;5.60;3.87;;;;;;;14.68;61.89;100319.03;4476767;31;33538;-81
2021/09/26 02:26:03;;;;;;;3.47;2.70;;;;;;;14.63;61.98;100315.75;4497500;31;34032;-81
2021/09/26 02:28:31;;;;;;;4.78;3.40;;;;;;;14.54;62.25;100320.59;4472530;31;32651;-82
2021/09/26 02:31:02;;;;;;;5.62;3.47;;;;;;;14.36;62.92;100334.81;4481608;32;34021;-81
2021/09/26 02:33:30;;;;;;;5.55;3.60;;;;;;;14.26;63.68;100336.22;4475996;31;33585;-82
2021/09/26 02:35:58;;;;;;;5.57;3.35;;;;;;;14.55;62.47;100334.75;4474031;31;34933;-81
2021/09/26 02:38:29;;;;;;;4.95;3.85;;;;;;;14.44;62.54;100331.78;4472434;31;32613;-82
2021/09/26 02:41:17;;;;;;;5.50;4.10;;;;;;;14.32;62.98;100330.56;4492752;31;33999;-81
2021/09/26 02:48:16;;;;;;;5.62;3.85;;;;;;;14.29;62.86;100344.88;4466275;31;33549;-81
2021/09/26 02:51:41;;;;;;;6.05;3.65;;;;;;;14.26;62.81;100342.37;4467359;31;32323;-81
2021/09/26 02:55:21;;;;;;;;;;;;;;;;;;;;;
2021/09/26 03:15:35;;;;;;;6.68;4.70;;;;;;;13.98;63.97;100339.38;4494116;31;161543;-82
2021/09/26 03:18:03;;;;;;;5.72;4.25;;;;;;;13.70;64.72;100350.47;4469509;32;33290;-83
2021/09/26 03:20:32;;;;;;;5.37;3.75;;;;;;;13.75;64.55;100354.63;4495486;32;34336;-83
2021/09/26 03:23:00;;;;;;;5.78;4.07;;;;;;;14.00;63.28;100346.31;4481905;32;33896;-84
2021/09/26 03:25:28;;;;;;;6.82;3.75;;;;;;;13.96;63.41;100347.41;4482443;32;33467;-83
2021/09/26 03:27:58;;;;;;;5.18;3.97;;;;;;;13.90;63.38;100355.66;4495578;32;34018;-83
2021/09/26 03:30:25;;;;;;;9.20;3.87;;;;;;;13.95;63.05;100351.00;4481422;32;33354;-83
2021/09/26 03:32:53;;;;;;;5.78;3.42;;;;;;;14.11;62.66;100355.56;4495520;31;34820;-83
2021/09/26 03:35:21;;;;;;;6.07;4.15;;;;;;;14.01;62.77;100347.19;4468998;31;32436;-83
2021/09/26 03:37:50;;;;;;;5.35;4.10;;;;;;;13.98;63.00;100350.84;4495644;31;33032;-84
2021/09/26 03:40:18;;;;;;;5.65;4.10;;;;;;;13.90;63.45;100353.00;4495111;32;33927;-84
2021/09/26 03:42:45;;;;;;;6.95;4.12;;;;;;;14.03;62.99;100351.47;4491453;31;33359;-83
2021/09/26 03:45:13;;;;;;;4.95;3.78;;;;;;;13.89;63.51;100351.28;4482263;32;33527;-83
2021/09/26 03:47:41;;;;;;;6.40;3.60;;;;;;;13.87;63.69;100349.66;4482076;32;33088;-83
2021/09/26 03:50:10;;;;;;;5.43;3.85;;;;;;;13.73;64.35;100350.31;4482222;32;33461;-83
2021/09/26 03:52:37;;;;;;;4.82;3.78;;;;;;;13.85;63.90;100347.06;4493508;32;32537;-83
2021/09/26 03:55:08;;;;;;;6.20;3.87;;;;;;;13.87;63.64;100337.25;4476081;32;33706;-82
2021/09/26 03:57:36;;;;;;;5.18;3.40;;;;;;;13.89;63.47;100342.47;4479960;32;32397;-83
2021/09/26 04:00:12;;;;;;;5.93;4.05;;;;;;;14.01;62.74;100344.53;4494455;32;33614;-83
2021/09/26 04:02:40;;;;;;;5.43;4.03;;;;;;;13.96;62.78;100347.41;4477527;32;34771;-83
2021/09/26 04:05:08;;;;;;;4.10;3.45;;;;;;;13.72;63.75;100349.47;4490523;32;33376;-83
2021/09/26 04:07:36;;;;;;;5.78;4.10;;;;;;;13.77;63.77;100341.28;4492886;32;33133;-84
2021/09/26 04:10:07;;;;;;;4.85;3.92;;;;;;;13.73;63.84;100339.72;4491468;31;34426;-83
2021/09/26 04:12:34;;;;;;;6.03;4.10;;;;;;;13.62;64.04;100352.63;4493491;32;33866;-83
2021/09/26 04:15:03;;;;;;;7.37;4.05;;;;;;;13.62;63.89;100342.00;4480279;32;33422;-83
2021/09/26 04:17:31;;;;;;;5.00;3.85;;;;;;;13.68;63.70;100347.91;4467367;32;33218;-83
2021/09/26 04:19:59;;;;;;;4.78;3.37;;;;;;;13.71;63.44;100346.88;4490855;32;34883;-83
2021/09/26 04:22:27;;;;;;;6.93;4.32;;;;;;;13.62;63.56;100342.84;4480185;32;33391;-82
2021/09/26 04:24:55;;;;;;;5.15;3.75;;;;;;;13.61;63.90;100350.91;4478849;32;33636;-83
2021/09/26 04:27:22;;;;;;;5.75;3.90;;;;;;;13.83;62.87;100340.97;4479718;32;34237;-83
2021/09/26 04:29:52;;;;;;;6.32;4.43;;;;;;;13.65;63.31;100339.22;4478649;32;33891;-83
2021/09/26 04:32:21;;;;;;;5.07;3.62;;;;;;;13.63;63.38;100338.44;4471269;32;33594;-83
2021/09/26 04:34:49;;;;;;;5.68;3.67;;;;;;;13.62;63.25;100342.84;4466751;32;33273;-83
2021/09/26 04:37:17;;;;;;;5.50;4.07;;;;;;;13.69;62.92;100344.31;4470919;32;32892;-83
2021/09/26 04:39:45;;;;;;;7.87;5.00;;;;;;;13.68;63.02;100339.06;4468607;32;33664;-83
2021/09/26 04:42:12;;;;;;;6.07;4.18;;;;;;;13.53;63.62;100344.19;4479549;32;34995;-84
2021/09/26 04:44:40;;;;;;;7.00;3.90;;;;;;;13.68;63.34;100347.91;4482658;32;34694;-83
2021/09/26 04:47:07;;;;;;;5.45;4.22;;;;;;;13.73;63.10;100334.41;4482322;32;32875;-82
2021/09/26 04:49:35;;;;;;;9.13;4.57;;;;;;;13.45;64.10;100348.13;4469849;32;33558;-82
2021/09/26 04:52:03;;;;;;;6.60;4.43;;;;;;;13.50;64.21;100344.31;4464744;32;33993;-83
2021/09/26 04:54:31;;;;;;;5.28;4.30;;;;;;;13.41;64.49;100350.03;4481565;32;33499;-82
2021/09/26 04:56:58;;;;;;;7.10;4.00;;;;;;;13.44;64.47;100351.72;4482473;32;33304;-82
2021/09/26 04:59:26;;;;;;;10.85;5.35;;;;;;;13.51;64.34;100359.28;4470745;32;33616;-82
2021/09/26 05:01:54;;;;;;;7.90;4.45;;;;;;;13.63;63.76;100354.34;4481256;32;34726;-82
2021/09/26 05:04:22;;;;;;;8.65;4.72;;;;;;;13.57;63.92;100359.00;4469121;32;33220;-83
2021/09/26 05:06:49;;;;;;;10.32;3.90;;;;;;;13.53;64.13;100351.25;4483315;32;32962;-82
2021/09/26 05:09:17;;;;;;;5.50;4.00;;;;;;;13.38;64.90;100354.63;4482313;32;34877;-82
2021/09/26 05:11:45;;;;;;;5.35;4.07;;;;;;;13.56;64.33;100356.44;4482222;32;33651;-82
2021/09/26 05:14:12;;;;;;;5.80;3.87;;;;;;;13.49;64.63;100358.50;4469470;32;33393;-82
2021/09/26 05:16:40;;;;;;;5.50;4.28;;;;;;;13.49;64.79;100357.66;4456096;32;32679;-83
2021/09/26 05:19:08;;;;;;;5.90;4.22;;;;;;;13.60;64.61;100360.66;4481043;32;33478;-82
2021/09/26 05:21:36;;;;;;;5.60;4.60;;;;;;;13.68;64.53;100361.16;4468421;32;34682;-82
2021/09/26 05:24:04;;;;;;;8.68;5.18;;;;;;;13.63;64.83;100362.31;4454287;32;33928;-82
2021/09/26 05:26:32;;;;;;;7.62;5.20;;;;;;;13.70;64.72;100359.28;4482208;32;33508;-83
2021/09/26 05:29:02;;;;;;;8.45;4.93;;;;;;;13.74;64.88;100358.22;4483771;32;34551;-82
2021/09/26 05:31:29;;;;;;;7.07;4.90;;;;;;;13.81;64.86;100358.75;4467134;32;34664;-83
2021/09/26 05:33:57;;;;;;;7.90;5.80;;;;;;;14.02;64.19;100357.72;4480083;32;33689;-82
2021/09/26 05:36:25;;;;;;;7.70;5.55;;;;;;;14.07;64.29;100349.53;4481512;32;33013;-81
2021/09/26 05:38:54;;;;;;;12.63;6.22;;;;;;;14.37;64.17;100352.44;4471331;32;32974;-82
2021/09/26 05:41:21;;;;;;;9.15;5.70;;;;;;;14.63;63.42;100352.97;4467698;32;32973;-82
2021/09/26 05:43:49;;;;;;;7.37;5.93;;;;;;;14.54;64.15;100349.00;4478607;32;33533;-83
2021/09/26 05:46:17;;;;;;;8.18;6.12;;;;;;;14.35;65.17;100354.34;4469095;32;33275;-83
2021/09/26 05:48:45;;;;;;;11.55;6.55;;;;;;;14.49;64.96;100361.66;4468197;32;35017;-83
2021/09/26 05:51:13;;;;;;;9.60;6.78;;;;;;;14.66;64.73;100358.09;4475403;32;34032;-83
2021/09/26 05:53:41;;;;;;;8.10;5.72;;;;;;;14.84;64.50;100363.34;4468740;32;33680;-83
2021/09/26 05:56:08;;;;;;;10.10;7.00;;;;;;;14.82;65.03;100365.22;4473526;31;35484;-83
2021/09/26 05:58:36;;;;;;;10.70;6.10;;;;;;;14.84;65.33;100365.13;4482517;32;33392;-82
2021/09/26 06:01:04;;;;;;;11.88;7.37;;;;;;;14.68;65.94;100364.22;4469766;32;34018;-82
2021/09/26 06:03:32;;;;;;;8.05;6.40;;;;;;;14.88;65.67;100357.88;4457477;32;33018;-82
2021/09/26 06:05:59;;;;;;;10.70;6.30;;;;;;;14.94;65.75;100358.38;4462207;32;32766;-83
2021/09/26 06:08:27;;;;;;;11.70;7.28;;;;;;;14.99;65.85;100361.66;4482636;32;34554;-83
2021/09/26 06:10:55;;;;;;;11.57;6.82;;;;;;;15.06;65.48;100360.41;4470404;32;34895;-83
2021/09/26 06:13:23;;;;;;;8.40;6.65;;;;;;;15.26;65.28;100364.66;4469946;32;33609;-83
2021/09/26 06:15:51;;;;;;;8.30;6.22;;;;;;;15.56;65.13;100367.44;4468473;32;33108;-83
2021/09/26 06:18:19;;;;;;;9.90;7.05;;;;;;;15.89;65.13;100371.84;4481077;32;32439;-83
2021/09/26 06:20:47;;;;;;;12.73;8.35;;;;;;;16.22;65.14;100371.72;4479265;32;33677;-83
2021/09/26 06:23:15;;;;;;;10.55;7.10;;;;;;;16.22;65.36;100371.72;4469104;32;35567;-83
2021/09/26 06:25:44;;;;;;;12.35;7.97;;;;;;;16.31;65.56;100370.34;4471586;31;33102;-83
2021/09/26 06:28:11;;;;;;;11.23;7.72;;;;;;;16.45;65.62;100367.72;4467738;32;34994;-83
2021/09/26 06:30:39;;;;;;;16.98;8.38;;;;;;;16.38;65.88;100366.37;4479277;32;35050;-83
2021/09/26 06:33:07;;;;;;;11.77;7.45;;;;;;;16.43;65.47;100361.63;4482476;32;34384;-83
2021/09/26 06:35:35;;;;;;;12.00;7.85;;;;;;;16.53;65.27;100364.62;4468248;32;33647;-83
2021/09/26 06:38:03;;;;;;;11.00;8.63;;;;;;;16.69;65.10;100364.53;4469062;32;34348;-82
2021/09/26 06:40:32;;;;;;;14.32;8.32;;;;;;;17.22;64.56;100355.94;4483579;32;34049;-83
2021/09/26 06:43:00;;;;;;;10.90;8.18;;;;;;;17.45;64.27;100365.19;4463113;32;32615;-82
2021/09/26 06:45:29;;;;;;;13.45;8.55;;;;;;;17.58;64.01;100359.94;4469300;32;32959;-81
2021/09/26 06:47:57;;;;;;;17.20;8.85;;;;;;;17.75;63.74;100367.75;4481679;32;34829;-82
2021/09/26 06:50:26;;;;;;;13.73;10.00;;;;;;;17.84;64.07;100367.16;4456052;32;33809;-83
2021/09/26 06:52:53;;;;;;;12.45;8.68;;;;;;;17.66;64.93;100369.19;4466730;32;32651;-80
2021/09/26 06:55:21;;;;;;;12.70;8.90;;;;;;;17.95;64.67;100371.81;4481141;32;34047;-80
2021/09/26 06:57:52;;;;;;;15.80;9.38;;;;;;;17.49;65.98;100372.06;4468655;32;35148;-81
2021/09/26 07:00:19;;;;;;;15.73;9.30;;;;;;;17.91;64.76;100378.31;4480595;32;33911;-80
2021/09/26 07:02:47;;;;;;;12.02;8.40;;;;;;;17.95;65.15;100379.84;4481052;31;33984;-80
2021/09/26 07:05:15;;;;;;;11.30;8.57;;;;;;;18.12;64.57;100376.03;4470836;32;33491;-80
2021/09/26 07:07:49;;;;;;;13.30;9.48;;;;;;;18.52;63.71;100376.94;4469973;32;34690;-80
2021/09/26 07:10:16;;;;;;;16.92;8.85;;;;;;;18.83;62.97;100369.50;4469172;32;33745;-80
2021/09/26 07:12:46;;;;;;;10.63;8.45;;;;;;;18.74;63.03;100383.50;4468838;32;33731;-79
2021/09/26 07:15:14;;;;;;;15.35;9.00;;;;;;;19.32;62.45;100379.44;4468216;32;32943;-81
2021/09/26 07:17:41;;;;;;;12.43;7.72;;;;;;;19.59;61.72;100372.13;4482292;32;31955;-82
2021/09/26 07:20:09;;;;;;;12.85;7.32;;;;;;;19.91;60.25;100377.00;4469307;32;33742;-80
2021/09/26 07:22:40;;;;;;;9.80;7.65;;;;;;;19.52;61.34;100375.38;4469051;32;33453;-79
2021/09/26 07:25:09;;;;;;;10.85;7.32;;;;;;;20.10;59.89;100366.63;4480567;32;32911;-80
2021/09/26 07:27:36;;;;;;;11.75;8.30;;;;;;;20.25;59.41;100366.47;4480264;32;33610;-80
2021/09/26 07:30:05;;;;;;;10.48;6.53;;;;;;;20.11;60.05;100373.69;4478817;32;33692;-79
2021/09/26 07:32:33;;;;;;;11.77;7.95;;;;;;;20.11;58.52;100380.88;4467705;32;34720;-80
2021/09/26 07:35:01;;;;;;;10.18;7.20;;;;;;;20.31;57.73;100376.72;4479749;32;33850;-80
2021/09/26 07:37:28;;;;;;;10.20;7.25;;;;;;;20.60;57.09;100380.75;4478759;32;33443;-80
2021/09/26 07:39:56;;;;;;;10.70;6.80;;;;;;;20.82;57.14;100373.75;4467480;32;34118;-80
2021/09/26 07:42:24;;;;;;;10.00;6.70;;;;;;;20.61;57.52;100377.13;4474078;32;32277;-80
2021/09/26 07:44:52;;;;;;;7.35;6.45;;;;;;;20.76;56.10;100380.47;4465687;32;33296;-79
2021/09/26 07:47:20;;;;;;;10.73;6.65;;;;;;;20.83;55.96;100387.06;4481380;32;35132;-79
2021/09/26 07:49:48;;;;;;;14.60;6.07;;;;;;;21.19;54.36;100388.72;4478256;32;34473;-79
2021/09/26 07:52:16;;;;;;;9.07;6.87;;;;;;;21.19;56.10;100388.72;4480457;32;33034;-80
2021/09/26 07:54:43;;;;;;;8.73;6.47;;;;;;;21.17;54.71;100382.63;4467388;32;32590;-80
2021/09/26 07:57:11;;;;;;;7.65;5.65;;;;;;;20.95;55.37;100380.75;4468494;32;32770;-80
2021/09/26 07:59:41;;;;;;;8.70;6.30;;;;;;;21.20;55.23;100387.72;4479579;31;33768;-80
2021/09/26 08:02:08;;;;;;;9.57;6.43;;;;;;;21.43;53.99;100390.47;4469040;32;33653;-80
2021/09/26 08:04:36;;;;;;;10.73;6.22;;;;;;;21.49;54.21;100379.22;4467613;31;34075;-79
2021/09/26 08:07:04;;;;;;;10.85;6.82;;;;;;;21.39;54.05;100383.63;4470806;32;33326;-79
2021/09/26 08:09:32;;;;;;;8.43;5.80;;;;;;;21.88;52.83;100379.66;4468568;32;33728;-80
2021/09/26 08:12:00;;;;;;;8.50;5.62;;;;;;;21.48;53.76;100383.75;4483873;32;33768;-80
2021/09/26 08:14:28;;;;;;;8.45;6.18;;;;;;;21.67;53.71;100387.66;4482855;32;34263;-80
2021/09/26 08:16:56;;;;;;;8.13;6.07;;;;;;;22.13;52.80;100392.00;4482761;32;33081;-80
2021/09/26 08:19:25;;;;;;;8.90;6.03;;;;;;;22.07;52.88;100396.00;4466095;32;33525;-80
2021/09/26 08:21:53;;;;;;;7.47;5.25;;;;;;;22.21;52.15;100387.66;4482327;32;33867;-80
2021/09/26 08:24:21;;;;;;;7.60;6.18;;;;;;;22.49;51.67;100380.00;4467938;32;33409;-81
2021/09/26 08:26:49;;;;;;;9.35;5.97;;;;;;;22.42;51.62;100385.03;4457370;32;33037;-81
2021/09/26 08:29:17;;;;;;;8.10;6.15;;;;;;;22.55;50.73;100384.88;4456984;32;33559;-80
2021/09/26 08:31:45;;;;;;;10.65;6.07;;;;;;;22.23;52.00;100376.81;4480152;32;34340;-80
2021/09/26 08:34:13;;;;;;;10.30;6.75;;;;;;;22.29;51.33;100384.34;4470466;32;33504;-80
2021/09/26 08:36:41;;;;;;;8.20;5.62;;;;;;;22.44;51.30;100384.91;4479598;32;34573;-80
2021/09/26 08:39:08;;;;;;;11.90;6.07;;;;;;;22.88;51.04;100381.16;4470896;32;33037;-80
2021/09/26 08:41:36;;;;;;;8.07;6.95;;;;;;;23.04;49.56;100369.94;4451779;32;32820;-80
2021/09/26 08:44:07;;;;;;;13.13;6.22;;;;;;;23.31;49.40;100371.19;4467286;32;32295;-80
2021/09/26 08:46:35;;;;;;;10.40;6.62;;;;;;;22.88;50.60;100386.53;4468463;32;34503;-80
2021/09/26 08:49:03;;;;;;;9.90;7.30;;;;;;;22.71;50.40;100379.03;4480866;32;34108;-80
2021/09/26 08:51:31;;;;;;;8.55;6.57;;;;;;;23.10;49.78;100368.53;4469712;32;33274;-80
2021/09/26 08:53:58;;;;;;;12.20;7.45;;;;;;;23.12;49.60;100371.94;4468658;32;34403;-80
2021/09/26 08:56:26;;;;;;;11.18;6.72;;;;;;;22.93;49.20;100367.28;4466352;32;34248;-81
2021/09/26 08:58:54;;;;;;;12.73;7.90;;;;;;;22.71;50.26;100369.13;4453633;32;33292;-83
2021/09/26 09:01:21;;;;;;;9.02;6.87;;;;;;;22.86;49.74;100371.47;4467808;32;33392;-81
2021/09/26 09:03:49;;;;;;;9.35;6.50;;;;;;;23.01;48.98;100364.78;4454716;32;33660;-81
2021/09/26 09:06:17;;;;;;;8.88;7.18;;;;;;;23.19;48.81;100365.03;4468504;32;34227;-81
2021/09/26 09:08:45;;;;;;;8.70;6.62;;;;;;;22.92;49.61;100365.59;4479363;32;34887;-81
2021/09/26 09:11:20;;;;;;;10.68;7.18;;;;;;;22.81;49.63;100366.50;4475789;32;33161;-81
2021/09/26 09:13:58;;;;;;;11.23;7.53;;;;;;;23.06;49.24;100364.41;4454582;32;32777;-81
2021/09/26 09:16:32;;;;;;;10.45;7.53;;;;;;;23.15;48.61;100372.53;4452267;32;34107;-81
2021/09/26 09:19:00;;;;;;;8.18;6.37;;;;;;;23.43;48.65;100368.25;4465556;32;34583;-81
2021/09/26 09:21:33;;;;;;;12.82;7.90;;;;;;;23.18;49.57;100369.56;4477520;31;33627;-81
2021/09/26 09:24:24;;;;;;;9.02;7.25;;;;;;;23.74;48.28;100366.44;4470094;32;33770;-81
2021/09/26 09:26:54;;;;;;;9.52;6.93;;;;;;;23.65;48.12;100367.25;4457406;32;34294;-81
2021/09/26 09:29:23;;;;;;;9.63;7.05;;;;;;;23.71;48.68;100369.37;4468287;32;35358;-81
2021/09/26 09:31:56;;;;;;;10.40;6.65;;;;;;;24.10;47.66;100358.69;4481868;32;34714;-81
2021/09/26 09:34:36;;;;;;;8.57;6.57;;;;;;;24.49;45.68;100353.31;4469256;32;33862;-82
2021/09/26 09:37:25;;;;;;;9.18;7.18;;;;;;;24.53;45.76;100352.87;4481936;32;33939;-81
2021/09/26 09:40:16;;;;;;;10.30;7.00;;;;;;;24.11;47.44;100344.19;4467138;32;32939;-81
2021/09/26 09:42:49;;;;;;;8.07;6.37;;;;;;;24.36;48.35;100348.22;4468765;32;33074;-81
2021/09/26 09:45:17;;;;;;;9.40;5.87;;;;;;;24.81;45.55;100353.00;4483299;32;33010;-81
2021/09/26 09:48:03;;;;;;;9.50;6.75;;;;;;;24.86;45.39;100348.00;4482066;32;33681;-81
2021/09/26 09:50:39;;;;;;;9.77;6.68;;;;;;;24.63;45.94;100347.47;4470141;32;34153;-81
2021/09/26 09:53:10;;;;;;;7.90;6.12;;;;;;;24.66;45.86;100346.34;4469912;32;34338;-81
2021/09/26 09:55:38;;;;;;;10.23;7.35;;;;;;;24.88;45.71;100345.19;4465326;32;33208;-81
2021/09/26 09:58:17;;;;;;;7.87;6.20;;;;;;;24.96;45.59;100347.97;4456505;32;32879;-81
2021/09/26 10:00:56;;;;;;;11.55;7.03;;;;;;;24.99;45.64;100339.59;4462505;32;33620;-82
2021/09/26 10:03:35;;;;;;;9.00;6.40;;;;;;;24.69;45.49;100352.31;4482592;32;34352;-81
2021/09/26 10:06:24;;;;;;;11.00;6.72;;;;;;;25.02;45.12;100339.31;4470419;32;32483;-82
2021/09/26 10:08:54;;;;;;;8.43;6.62;;;;;;;24.87;45.98;100335.34;4470651;32;33043;-81
2021/09/26 10:11:26;;;;;;;11.05;6.78;;;;;;;24.91;45.61;100337.62;4471013;32;33740;-81
2021/09/26 10:13:56;;;;;;;7.60;5.78;;;;;;;25.04;45.18;100335.44;4483147;32;33323;-81
2021/09/26 10:16:24;;;;;;;8.80;6.75;;;;;;;25.51;44.25;100334.59;4479364;31;32337;-81
2021/09/26 10:18:52;;;;;;;10.68;6.47;;;;;;;25.34;44.36;100322.69;4469916;32;33441;-82
2021/09/26 10:21:20;;;;;;;8.50;7.15;;;;;;;25.48;44.28;100324.06;4455017;32;34804;-82
2021/09/26 10:23:52;;;;;;;9.73;6.20;;;;;;;25.69;44.31;100316.56;4468651;32;32762;-82
2021/09/26 10:26:24;;;;;;;6.95;5.72;;;;;;;25.84;43.29;100319.63;4466473;32;33451;-82
2021/09/26 10:28:55;;;;;;;14.93;5.10;;;;;;;26.10;45.60;100313.44;4481663;32;34529;-82
2021/09/26 10:31:28;;;;;;;5.43;4.32;;;;;;;26.17;44.54;100314.53;4470044;32;33184;-82
2021/09/26 10:33:59;;;;;;;7.47;4.80;;;;;;;26.72;41.64;100308.91;4468999;32;34617;-82
2021/09/26 10:36:29;;;;;;;8.32;4.85;;;;;;;26.71;42.25;100305.34;4469475;32;32736;-82
2021/09/26 10:38:57;;;;;;;7.25;5.20;;;;;;;27.13;40.25;100306.47;4470151;32;32874;-82
2021/09/26 10:41:25;;;;;;;6.80;4.75;;;;;;;27.00;39.53;100306.88;4466921;32;34094;-82
2021/09/26 10:43:53;;;;;;;8.77;4.20;;;;;;;26.97;40.68;100309.94;4482009;32;33043;-82
2021/09/26 10:46:23;;;;;;;4.15;3.62;;;;;;;27.56;40.39;100308.19;4455163;32;32522;-82
2021/09/26 10:49:13;;;;;;;7.15;4.62;;;;;;;27.97;38.79;100306.47;4467805;32;33962;-82
2021/09/26 10:51:53;;;;;;;5.95;4.18;;;;;;;28.05;37.40;100287.47;4463997;32;33263;-82
2021/09/26 10:54:22;;;;;;;6.10;4.78;;;;;;;28.07;39.72;100290.03;4456686;32;33691;-83
2021/09/26 10:56:51;;;;;;;7.25;4.80;;;;;;;28.32;38.03;100283.56;4469990;32;32411;-82
2021/09/26 10:59:19;;;;;;;6.75;4.50;;;;;;;28.07;37.82;100287.31;4481447;31;34784;-83
2021/09/26 11:01:46;;;;;;;7.20;4.62;;;;;;;28.15;38.51;100286.44;4479520;31;33137;-82
2021/09/26 11:04:15;;;;;;;4.78;4.25;;;;;;;27.95;38.99;100285.94;4467465;32;34039;-82
2021/09/26 11:06:44;;;;;;;9.65;4.68;;;;;;;28.15;38.52;100286.44;4468891;32;33321;-82
2021/09/26 11:09:12;;;;;;;6.05;4.97;;;;;;;28.09;38.97;100282.56;4481598;32;33174;-82
2021/09/26 11:11:50;;;;;;;8.85;5.45;;;;;;;27.99;38.71;100287.28;4453110;32;33506;-82
2021/09/26 11:14:18;;;;;;;6.72;4.20;;;;;;;28.30;38.58;100280.19;4482951;32;33813;-82
2021/09/26 11:16:50;;;;;;;4.20;3.80;;;;;;;28.25;38.13;100281.72;4482367;32;32079;-82
2021/09/26 11:19:19;;;;;;;5.05;4.28;;;;;;;27.99;38.75;100277.28;4483776;32;34570;-82
2021/09/26 11:21:51;;;;;;;5.57;3.90;;;;;;;28.58;38.20;100272.56;4480436;31;34006;-82
2021/09/26 11:24:22;;;;;;;5.28;4.50;;;;;;;28.47;38.16;100266.63;4456316;32;33759;-83
2021/09/26 11:26:59;;;;;;;5.25;4.12;;;;;;;28.44;37.00;100258.81;4467300;32;32261;-82
2021/09/26 11:29:51;;;;;;;7.78;3.80;;;;;;;28.89;36.12;100263.66;4481576;32;33566;-83
2021/09/26 11:32:19;;;;;;;5.12;4.07;;;;;;;29.12;35.52;100252.06;4477614;32;35594;-83
2021/09/26 11:34:51;;;;;;;6.72;4.15;;;;;;;28.68;36.84;100260.66;4484295;32;34723;-83
2021/09/26 11:37:38;;;;;;;6.90;4.03;;;;;;;29.01;36.66;100256.88;4472436;32;33178;-84
2021/09/26 11:40:08;;;;;;;6.03;3.72;;;;;;;29.01;38.00;100251.44;4483920;32;34612;-83
2021/09/26 11:42:38;;;;;;;4.70;3.83;;;;;;;29.33;35.65;100249.59;4468663;32;33658;-83
2021/09/26 11:45:10;;;;;;;4.97;4.35;;;;;;;29.21;37.90;100243.69;4458874;32;32791;-82
2021/09/26 11:47:37;;;;;;;6.37;3.75;;;;;;;29.29;35.22;100249.09;4462142;32;32282;-83
2021/09/26 11:50:08;;;;;;;4.82;4.03;;;;;;;29.46;36.29;100238.13;4458957;32;33058;-83
2021/09/26 11:52:37;;;;;;;7.15;4.30;;;;;;;29.65;34.58;100231.41;4471828;32;34071;-83
2021/09/26 11:55:05;;;;;;;5.03;4.07;;;;;;;29.27;35.28;100244.84;4459740;32;32906;-83
2021/09/26 11:57:33;;;;;;;3.78;3.45;;;;;;;28.88;35.24;100240.22;4472381;32;32524;-83
2021/09/26 12:00:01;;;;;;;8.60;3.55;;;;;;;29.66;34.52;100228.50;4484714;32;34384;-83
2021/09/26 12:02:33;;;;;;;4.57;3.87;;;;;;;29.65;35.97;100242.31;4483022;32;34010;-83
2021/09/26 12:05:02;;;;;;;4.47;3.37;;;;;;;29.78;35.68;100232.53;4472336;32;32798;-82
2021/09/26 12:07:31;;;;;;;5.65;3.70;;;;;;;29.88;33.88;100226.00;4471747;32;33770;-83
2021/09/26 12:09:59;;;;;;;4.20;3.42;;;;;;;29.55;35.03;100218.88;4472209;32;33119;-83
2021/09/26 12:12:28;;;;;;;5.15;3.97;;;;;;;29.64;36.66;100213.41;4459109;32;33407;-83
2021/09/26 12:15:07;;;;;;;5.40;3.55;;;;;;;30.14;34.53;100212.00;4472361;32;34112;-83